Time;durP1;ratioP1;P1;durP2;ratioP2;P2;SDS_P1;SDS_P2;PMS_P1;PMS_P2;Temp;Humidity;BMP_temperature;BMP_pressure;BME280_temperature;BME280_humidity;BME280_pressure;Samples;Min_cycle;Max_cycle;Signal;HPM_P1;HPM_P2
2024/01/05 00:01:12;;;;;;;;;2.00;0.75;;;;;12.56;79.82;99646.38;5060792;28;45381;-68
2024/01/05 00:03:37;;;;;;;;;1.00;0.75;;;;;12.54;79.81;99642.03;5073629;27;45464;-68
2024/01/05 00:06:03;;;;;;;;;0.00;0.00;;;;;12.48;79.83;99632.56;5058175;28;48607;-68
2024/01/05 00:08:28;;;;;;;;;2.00;1.25;;;;;12.53;79.34;99640.31;5076529;27;45373;-67
2024/01/05 00:10:53;;;;;;;;;1.00;1.00;;;;;12.47;79.72;99630.81;5078200;27;45260;-68
2024/01/05 00:13:19;;;;;;;;;0.00;0.00;;;;;12.55;79.77;99641.94;5070912;27;50130;-68
2024/01/05 00:15:44;;;;;;;;;1.75;0.25;;;;;12.53;79.44;99651.00;5058458;28;47257;-67
2024/01/05 00:18:10;;;;;;;;;1.00;1.00;;;;;12.52;79.28;99644.81;5076776;27;45533;-67
2024/01/05 00:20:35;;;;;;;;;0.00;0.00;;;;;12.54;79.52;99647.41;5075339;27;46977;-68
2024/01/05 00:23:00;;;;;;;;;0.00;0.00;;;;;12.50;79.49;99644.03;5078137;27;45396;-67
2024/01/05 00:25:26;;;;;;;;;2.00;0.00;;;;;12.54;79.32;99650.06;5077140;28;62173;-68
2024/01/05 00:27:54;;;;;;;;;1.00;1.00;;;;;12.51;79.12;99651.13;5078449;28;45335;-67
2024/01/05 00:30:19;;;;;;;;;0.25;0.25;;;;;12.51;78.90;99636.84;5075084;28;45498;-68
2024/01/05 00:32:45;;;;;;;;;1.00;0.00;;;;;12.57;78.84;99656.09;5074748;28;45948;-68
2024/01/05 00:35:10;;;;;;;;;1.25;0.00;;;;;12.56;78.95;99661.53;5076214;27;45434;-68
2024/01/05 00:37:35;;;;;;;;;0.00;0.00;;;;;12.49;78.78;99644.97;5074125;28;45449;-68
2024/01/05 00:40:02;;;;;;;;;2.00;0.00;;;;;12.53;78.88;99657.25;5076456;27;49034;-68
2024/01/05 00:42:27;;;;;;;;;0.50;0.00;;;;;12.51;79.16;99659.16;5076545;27;46308;-68
2024/01/05 00:44:52;;;;;;;;;0.00;0.00;;;;;12.55;79.19;99663.38;5074147;27;47982;-68
2024/01/05 00:47:18;;;;;;;;;1.00;1.00;;;;;12.46;78.92;99652.31;5072737;28;45493;-67
2024/01/05 00:49:43;;;;;;;;;0.25;0.00;;;;;12.52;78.79;99662.69;5076861;27;45532;-68
2024/01/05 00:52:08;;;;;;;;;0.50;0.50;;;;;12.48;78.83;99656.66;5076499;27;67300;-68
2024/01/05 00:54:34;;;;;;;;;1.00;1.00;;;;;12.48;78.59;99650.41;5077050;27;45453;-67
2024/01/05 00:56:59;;;;;;;;;0.00;0.00;;;;;12.44;78.52;99652.41;5074996;27;45561;-67
2024/01/05 00:59:24;;;;;;;;;3.25;0.75;;;;;12.45;78.27;99654.16;5074868;27;46444;-67
2024/01/05 01:01:50;;;;;;;;;0.00;0.00;;;;;12.44;78.29;99657.75;5073476;27;45427;-68
2024/01/05 01:04:16;;;;;;;;;1.00;0.00;;;;;12.43;77.88;99658.72;5076309;28;47330;-68
2024/01/05 01:06:42;;;;;;;;;1.00;0.00;;;;;12.42;78.23;99665.03;5072573;27;45568;-67
2024/01/05 01:09:07;;;;;;;;;1.00;0.00;;;;;12.47;77.79;99670.13;5078951;28;45389;-67
2024/01/05 01:11:32;;;;;;;;;0.00;0.00;;;;;12.44;77.93;99660.44;5073993;28;47633;-68
2024/01/05 01:13:57;;;;;;;;;0.00;0.00;;;;;12.47;78.10;99678.16;5059548;28;47161;-68
2024/01/05 01:16:23;;;;;;;;;1.75;0.00;;;;;12.48;76.90;99674.50;5072931;28;45533;-68
2024/01/05 01:18:48;;;;;;;;;1.00;0.00;;;;;12.52;76.61;99698.34;5075072;27;45460;-68
2024/01/05 01:21:13;;;;;;;;;1.00;0.00;;;;;12.38;75.61;99685.75;5070120;28;45482;-67
2024/01/05 01:23:39;;;;;;;;;0.00;0.00;;;;;12.38;74.90;99699.13;5074319;28;59400;-68
2024/01/05 01:26:04;;;;;;;;;0.75;0.75;;;;;12.39;73.91;99698.16;5075853;28;46871;-68
2024/01/05 01:28:30;;;;;;;;;0.00;0.00;;;;;12.37;73.52;99699.22;5074266;27;45703;-67
2024/01/05 01:30:56;;;;;;;;;0.00;0.00;;;;;12.37;72.21;99692.03;5078526;28;45488;-67
2024/01/05 01:33:22;;;;;;;;;0.00;0.00;;;;;12.37;72.12;99689.38;5075237;28;46898;-68
2024/01/05 01:35:47;;;;;;;;;0.00;0.00;;;;;12.25;71.94;99675.84;5078503;27;46055;-67
2024/01/05 01:38:12;;;;;;;;;0.00;0.00;;;;;12.33;71.83;99690.50;5074063;28;45301;-67
2024/01/05 01:40:37;;;;;;;;;1.00;0.00;;;;;12.26;71.74;99686.44;5074843;27;46377;-67
2024/01/05 01:43:03;;;;;;;;;0.00;0.00;;;;;12.28;70.78;99694.38;5069310;28;46933;-67
2024/01/05 01:45:30;;;;;;;;;0.00;0.00;;;;;12.26;71.12;99697.13;5075683;27;46066;-68
2024/01/05 01:47:56;;;;;;;;;0.00;0.00;;;;;12.26;71.41;99709.66;5076288;28;45429;-68
2024/01/05 01:50:24;;;;;;;;;0.00;0.00;;;;;12.12;71.37;99695.22;5057397;28;46177;-68
2024/01/05 01:52:49;;;;;;;;;0.00;0.00;;;;;12.16;71.27;99707.50;5075189;27;45998;-68
2024/01/05 01:55:16;;;;;;;;;0.00;0.00;;;;;12.13;71.41;99698.75;5074064;28;45743;-68
2024/01/05 01:57:42;;;;;;;;;0.00;0.00;;;;;12.17;71.86;99709.22;5071552;28;45504;-67
2024/01/05 02:00:09;;;;;;;;;0.00;0.00;;;;;12.09;71.44;99692.72;5071507;28;45476;-68
2024/01/05 02:02:36;;;;;;;;;0.00;0.00;;;;;12.16;71.45;99710.19;5077435;27;45837;-68
2024/01/05 02:05:01;;;;;;;;;0.00;0.00;;;;;12.17;71.08;99721.75;5057139;28;45688;-68
2024/01/05 02:07:27;;;;;;;;;0.00;0.00;;;;;12.17;71.17;99727.94;5071644;27;45474;-67
2024/01/05 02:09:52;;;;;;;;;0.00;0.00;;;;;12.09;71.00;99707.91;5053872;28;46261;-68
2024/01/05 02:12:18;;;;;;;;;0.00;0.00;;;;;12.02;71.19;99694.00;5075697;27;47422;-68
2024/01/05 02:14:43;;;;;;;;;0.25;0.00;;;;;12.15;71.15;99729.84;5074295;28;45393;-68
2024/01/05 02:17:29;;;;;;;;;0.00;0.00;;;;;12.12;70.90;99721.13;5075758;28;45349;-68
2024/01/05 02:19:55;;;;;;;;;0.00;0.00;;;;;12.17;70.88;99724.41;5076417;27;45561;-68
2024/01/05 02:22:22;;;;;;;;;0.00;0.00;;;;;12.09;70.97;99710.59;5055032;27;48348;-67
2024/01/05 02:24:48;;;;;;;;;0.00;0.00;;;;;12.15;71.44;99716.47;5073959;28;46077;-68
2024/01/05 02:27:14;;;;;;;;;0.50;0.00;;;;;12.12;71.07;99715.78;5075906;28;45421;-68
2024/01/05 02:29:39;;;;;;;;;0.00;0.00;;;;;12.11;71.21;99722.94;5074889;27;45217;-68
2024/01/05 02:32:05;;;;;;;;;0.00;0.00;;;;;12.09;70.86;99722.16;5074105;28;63946;-67
2024/01/05 02:34:30;;;;;;;;;0.00;0.00;;;;;12.08;70.48;99712.41;5073405;27;46977;-68
2024/01/05 02:36:55;;;;;;;;;1.00;0.00;;;;;12.09;71.16;99716.78;5071745;28;55792;-68
2024/01/05 02:39:20;;;;;;;;;0.00;0.00;;;;;12.09;70.34;99714.13;5072751;27;45597;-68
2024/01/05 02:41:46;;;;;;;;;1.00;0.00;;;;;12.11;70.08;99708.69;5069674;28;65146;-67
2024/01/05 02:44:11;;;;;;;;;0.00;0.00;;;;;12.11;70.34;99732.75;5072187;27;45394;-68
2024/01/05 02:46:37;;;;;;;;;0.00;0.00;;;;;12.11;70.19;99730.97;5076770;28;45629;-68
2024/01/05 02:49:02;;;;;;;;;0.00;0.00;;;;;12.11;69.96;99724.75;5072848;27;45441;-68
2024/01/05 02:51:28;;;;;;;;;0.00;0.00;;;;;12.08;69.94;99736.50;5073873;27;45740;-67
2024/01/05 02:53:53;;;;;;;;;0.00;0.00;;;;;12.05;70.03;99734.81;5075772;28;47180;-68
2024/01/05 02:56:20;;;;;;;;;0.00;0.00;;;;;12.05;70.06;99725.94;5070465;27;45415;-68
2024/01/05 02:58:46;;;;;;;;;1.00;0.00;;;;;12.06;69.57;99733.00;5071319;28;45430;-67
2024/01/05 03:01:16;;;;;;;;;0.00;0.00;;;;;12.06;69.94;99738.34;5071064;28;45589;-68
2024/01/05 03:03:41;;;;;;;;;0.00;0.00;;;;;12.07;70.06;99742.78;5071873;28;45735;-68
2024/01/05 03:06:06;;;;;;;;;1.00;0.00;;;;;12.04;69.96;99733.13;5073173;28;50515;-68
2024/01/05 03:08:32;;;;;;;;;0.00;0.00;;;;;12.06;70.05;99730.34;5071981;28;57211;-68
2024/01/05 03:10:57;;;;;;;;;0.00;0.00;;;;;12.03;69.95;99727.84;5077470;27;65455;-68
2024/01/05 03:13:22;;;;;;;;;0.00;0.00;;;;;12.10;69.91;99745.28;5071517;28;60197;-68
2024/01/05 03:15:48;;;;;;;;;0.00;0.00;;;;;12.10;70.08;99742.59;5052486;28;47161;-68
2024/01/05 03:18:13;;;;;;;;;0.00;0.00;;;;;12.13;69.94;99742.44;5067942;28;45524;-67
2024/01/05 03:20:40;;;;;;;;;0.00;0.00;;;;;12.11;69.87;99741.69;5081758;27;45489;-68
2024/01/05 03:23:06;;;;;;;;;0.00;0.00;;;;;12.14;69.67;99746.81;5070914;27;46451;-68
2024/01/05 03:25:32;;;;;;;;;0.00;0.00;;;;;12.16;69.77;99752.09;5072407;28;45573;-68
2024/01/05 03:27:57;;;;;;;;;0.50;0.00;;;;;12.12;69.82;99750.56;5068968;28;46944;-68
2024/01/05 03:30:23;;;;;;;;;0.00;0.00;;;;;12.11;69.92;99749.69;5074538;28;45555;-68
2024/01/05 03:32:48;;;;;;;;;0.00;0.00;;;;;12.05;69.94;99737.50;5075085;27;45731;-68
2024/01/05 03:35:13;;;;;;;;;0.50;0.00;;;;;12.00;70.09;99730.69;5076389;28;53603;-68
2024/01/05 03:37:39;;;;;;;;;0.00;0.00;;;;;12.05;70.11;99744.69;5073985;28;46055;-68
2024/01/05 03:40:05;;;;;;;;;0.00;0.00;;;;;12.12;69.99;99756.75;5035837;27;1119236;-68
2024/01/05 03:42:30;;;;;;;;;0.00;0.00;;;;;12.08;69.88;99748.97;5076410;28;46735;-68
2024/01/05 03:44:55;;;;;;;;;0.00;0.00;;;;;12.09;70.06;99754.25;5078817;27;45392;-67
2024/01/05 03:47:20;;;;;;;;;0.00;0.00;;;;;12.07;70.19;99766.00;5076886;28;45517;-68
2024/01/05 03:49:46;;;;;;;;;0.00;0.00;;;;;12.08;70.20;99760.56;5075902;27;67378;-68
2024/01/05 03:52:11;;;;;;;;;0.00;0.00;;;;;12.08;70.56;99767.69;5065460;28;45681;-68
2024/01/05 03:54:36;;;;;;;;;1.00;0.00;;;;;12.09;70.66;99772.97;5075094;27;52559;-67
2024/01/05 03:57:02;;;;;;;;;0.00;0.00;;;;;12.08;71.14;99773.94;5075937;28;50618;-68
2024/01/05 03:59:27;;;;;;;;;1.25;0.25;;;;;12.14;71.54;99770.06;5074250;28;46213;-68
2024/01/05 04:01:53;;;;;;;;;0.00;0.00;;;;;12.13;72.10;99773.66;5079172;27;47197;-68
2024/01/05 04:04:18;;;;;;;;;0.00;0.00;;;;;12.09;72.78;99775.66;5076295;28;45323;-68
2024/01/05 04:06:44;;;;;;;;;0.00;0.00;;;;;12.07;72.61;99782.03;5072073;27;45618;-68
2024/01/05 04:09:09;;;;;;;;;0.00;0.00;;;;;11.97;73.19;99777.16;5076947;28;45970;-68
2024/01/05 04:11:36;;;;;;;;;0.00;0.00;;;;;11.96;73.31;99778.13;5059198;28;45598;-68
2024/01/05 04:14:02;;;;;;;;;1.00;0.00;;;;;11.98;72.95;99783.41;5077693;28;45545;-68
2024/01/05 04:16:27;;;;;;;;;0.00;0.00;;;;;11.88;72.92;99766.94;5076802;27;45706;-68
2024/01/05 04:18:53;;;;;;;;;0.00;0.00;;;;;11.91;72.53;99779.28;5077385;27;57166;-68
2024/01/05 04:21:18;;;;;;;;;0.00;0.00;;;;;11.87;72.46;99782.09;5073922;27;63272;-68
2024/01/05 04:23:43;;;;;;;;;0.00;0.00;;;;;11.81;72.91;99779.78;5056603;28;63168;-68
2024/01/05 04:26:08;;;;;;;;;1.00;0.00;;;;;11.77;72.31;99775.53;5077750;28;45623;-68
2024/01/05 04:28:34;;;;;;;;;0.00;0.00;;;;;11.70;72.66;99763.44;5076271;27;45499;-67
2024/01/05 04:30:59;;;;;;;;;1.00;0.00;;;;;11.74;72.65;99769.47;5073669;28;45467;-68
2024/01/05 04:33:25;;;;;;;;;0.00;0.00;;;;;11.63;72.00;99748.69;5076599;27;45435;-68
2024/01/05 04:35:50;;;;;;;;;0.00;0.00;;;;;11.57;71.84;99755.19;5077295;28;47060;-68
2024/01/05 04:38:15;;;;;;;;;0.00;0.00;;;;;11.65;72.21;99762.81;5045584;28;47739;-68
2024/01/05 04:40:41;;;;;;;;;0.00;0.00;;;;;11.66;72.38;99775.22;5077385;28;45624;-68
2024/01/05 04:43:06;;;;;;;;;1.00;0.00;;;;;11.61;72.10;99764.78;5051062;27;45548;-67
2024/01/05 04:45:31;;;;;;;;;0.00;0.00;;;;;11.63;71.83;99776.25;5076417;27;47034;-68
2024/01/05 04:47:56;;;;;;;;;0.00;0.00;;;;;11.61;71.87;99771.91;5075911;28;57210;-68
2024/01/05 04:50:22;;;;;;;;;0.00;0.00;;;;;11.62;72.00;99781.69;5085826;27;62388;-68
2024/01/05 04:52:47;;;;;;;;;0.00;0.00;;;;;11.58;72.14;99772.13;5057731;28;45663;-67
2024/01/05 04:55:15;;;;;;;;;0.00;0.00;;;;;11.60;71.96;99780.91;5074408;28;62703;-68
2024/01/05 04:57:41;;;;;;;;;0.00;0.00;;;;;11.58;72.57;99783.66;5075716;28;47232;-68
2024/01/05 05:00:08;;;;;;;;;0.00;0.00;;;;;11.58;72.60;99774.78;5072400;27;45517;-67
2024/01/05 05:02:36;;;;;;;;;0.00;0.00;;;;;11.56;72.43;99784.66;5073653;28;45446;-68
2024/01/05 05:05:01;;;;;;;;;0.00;0.00;;;;;11.55;72.42;99799.00;5072749;27;46968;-67
2024/01/05 05:07:26;;;;;;;;;0.00;0.00;;;;;11.47;72.43;99780.66;5076008;28;46714;-68
2024/01/05 05:09:51;;;;;;;;;0.00;0.00;;;;;11.42;72.82;99780.88;5058087;28;45808;-67
2024/01/05 05:12:17;;;;;;;;;0.00;0.00;;;;;11.52;72.83;99791.13;5073750;27;57646;-67
2024/01/05 05:14:42;;;;;;;;;0.50;0.00;;;;;11.48;72.99;99791.28;5072951;28;48722;-68
2024/01/05 05:17:08;;;;;;;;;0.00;0.00;;;;;11.53;72.82;99793.72;5075127;27;45457;-68
2024/01/05 05:19:34;;;;;;;;;0.00;0.00;;;;;11.46;73.05;99784.25;5073682;28;45461;-67
2024/01/05 05:21:59;;;;;;;;;0.00;0.00;;;;;11.49;72.74;99789.47;5071499;27;45612;-67
2024/01/05 05:24:24;;;;;;;;;0.00;0.00;;;;;11.42;73.24;99780.88;5055418;28;45474;-68
2024/01/05 05:26:50;;;;;;;;;1.00;0.00;;;;;11.36;72.83;99773.22;5074042;27;45718;-68
2024/01/05 05:29:15;;;;;;;;;0.00;0.00;;;;;11.44;73.28;99791.50;5056791;28;50320;-68
2024/01/05 05:31:40;;;;;;;;;0.00;0.00;;;;;11.41;73.35;99791.66;5073549;27;45504;-67
2024/01/05 05:34:05;;;;;;;;;0.00;0.00;;;;;11.42;73.04;99798.75;5075754;28;60354;-68
2024/01/05 05:36:31;;;;;;;;;0.00;0.00;;;;;11.41;73.28;99805.91;5074837;27;55245;-67
2024/01/05 05:38:56;;;;;;;;;0.00;0.00;;;;;11.33;72.96;99792.06;5076780;28;45388;-68
2024/01/05 05:41:21;;;;;;;;;0.00;0.00;;;;;11.38;73.50;99811.41;5075739;27;45549;-67
2024/01/05 05:43:47;;;;;;;;;0.25;0.00;;;;;11.30;72.85;99794.88;5073758;28;45815;-67
2024/01/05 05:46:12;;;;;;;;;0.00;0.00;;;;;11.30;73.44;99805.56;5077040;28;45895;-67
2024/01/05 05:48:37;;;;;;;;;0.00;0.00;;;;;11.23;73.19;99794.34;5083484;27;45298;-67
2024/01/05 05:51:04;;;;;;;;;0.00;0.00;;;;;11.28;72.78;99812.81;5076353;27;45468;-67
2024/01/05 05:53:29;;;;;;;;;0.00;0.00;;;;;11.26;73.48;99806.66;5055669;28;45546;-67
2024/01/05 05:55:54;;;;;;;;;1.50;0.75;;;;;11.21;73.10;99809.59;5074787;27;46278;-67
2024/01/05 05:58:21;;;;;;;;;0.00;0.00;;;;;11.23;73.23;99804.16;5054070;28;63414;-68
2024/01/05 06:00:47;;;;;;;;;0.00;0.00;;;;;11.22;73.21;99807.75;5079236;27;45551;-67
2024/01/05 06:03:12;;;;;;;;;0.00;0.00;;;;;11.17;73.02;99810.66;5073537;27;45425;-67
2024/01/05 06:05:37;;;;;;;;;0.00;0.00;;;;;11.21;73.33;99822.06;5075999;28;45551;-67
2024/01/05 06:08:03;;;;;;;;;0.00;0.00;;;;;11.14;73.28;99818.81;5070694;27;53902;-67
2024/01/05 06:10:28;;;;;;;;;0.25;0.25;;;;;11.15;73.73;99825.91;5074712;28;45486;-67
2024/01/05 06:12:54;;;;;;;;;0.00;0.00;;;;;11.17;73.71;99834.69;5070481;27;45614;-67
2024/01/05 06:15:19;;;;;;;;;2.50;0.00;;;;;11.06;73.38;99826.34;5074216;28;64048;-67
2024/01/05 06:17:44;;;;;;;;;1.00;0.00;;;;;11.16;73.94;99843.66;5057229;28;47695;-67
2024/01/05 06:20:10;;;;;;;;;0.00;0.00;;;;;11.08;73.64;99835.16;5073897;28;45479;-67
2024/01/05 06:22:35;;;;;;;;;0.00;0.00;;;;;11.02;73.46;99830.13;5074567;27;45387;-67
2024/01/05 06:25:01;;;;;;;;;0.00;0.00;;;;;11.10;73.69;99842.16;5073402;28;46743;-67
2024/01/05 06:27:26;;;;;;;;;1.75;0.00;;;;;11.07;73.93;99850.31;5075609;28;65428;-67
2024/01/05 06:29:51;;;;;;;;;0.00;0.00;;;;;11.07;73.76;99850.31;5075276;27;45341;-67
2024/01/05 06:32:16;;;;;;;;;0.00;0.00;;;;;11.07;74.15;99844.97;5072615;27;59706;-67
2024/01/05 06:34:42;;;;;;;;;0.00;0.00;;;;;11.04;73.98;99847.81;5052869;28;65403;-67
2024/01/05 06:37:07;;;;;;;;;0.75;0.00;;;;;10.98;74.20;99837.41;5074901;28;45495;-67
2024/01/05 06:39:32;;;;;;;;;0.00;0.00;;;;;11.01;74.11;99849.72;5073669;27;45475;-68
2024/01/05 06:41:58;;;;;;;;;0.00;0.00;;;;;11.04;74.63;99850.47;5055854;28;45450;-67
2024/01/05 06:44:23;;;;;;;;;0.00;0.00;;;;;11.04;74.57;99847.81;5072330;27;57805;-67
2024/01/05 06:46:50;;;;;;;;;0.00;0.00;;;;;10.86;74.51;99819.31;5077506;28;45296;-67
2024/01/05 06:49:16;;;;;;;;;0.00;0.00;;;;;11.01;74.58;99847.94;5058793;28;45480;-67
2024/01/05 06:51:41;;;;;;;;;1.25;0.25;;;;;10.93;74.58;99842.13;5079376;27;45548;-67
2024/01/05 06:54:06;;;;;;;;;0.00;0.00;;;;;10.92;74.61;99848.38;5078658;28;58376;-67
2024/01/05 06:56:32;;;;;;;;;0.00;0.00;;;;;10.91;74.30;99858.22;5071126;28;45571;-67
2024/01/05 06:59:02;;;;;;;;;0.75;0.75;;;;;10.84;74.53;99851.44;5074066;28;45454;-67
2024/01/05 07:01:28;;;;;;;;;0.00;0.00;;;;;10.91;74.79;99857.34;5071936;27;46137;-67
2024/01/05 07:03:54;;;;;;;;;0.00;0.00;;;;;10.89;74.44;99872.56;5072848;27;46128;-67
2024/01/05 07:06:19;;;;;;;;;0.00;0.00;;;;;10.87;74.35;99872.63;5071764;28;45435;-67
2024/01/05 07:08:44;;;;;;;;;1.00;1.00;;;;;10.86;74.51;99876.25;5071655;27;45366;-67
2024/01/05 07:11:21;;;;;;;;;2.50;0.00;;;;;10.83;74.57;99868.38;5057593;27;55484;-67
2024/01/05 07:13:47;;;;;;;;;0.50;0.50;;;;;10.75;74.72;99857.19;5088683;27;46531;-67
2024/01/05 07:16:20;;;;;;;;;1.00;1.00;;;;;10.77;74.98;99863.31;5071221;27;45464;-67
2024/01/05 07:18:46;;;;;;;;;0.00;0.00;;;;;10.75;74.26;99859.88;5077924;28;45313;-67
2024/01/05 07:21:12;;;;;;;;;1.75;0.00;;;;;10.73;74.72;99869.75;5073019;27;45462;-67
2024/01/05 07:23:37;;;;;;;;;0.25;0.00;;;;;10.74;74.85;99869.69;5069141;28;47239;-66
2024/01/05 07:26:02;;;;;;;;;1.00;1.00;;;;;10.77;74.61;99876.69;5071232;27;51160;-77
2024/01/05 07:28:28;;;;;;;;;1.00;1.00;;;;;10.73;74.94;99880.44;5070422;27;45610;-77
2024/01/05 07:30:53;;;;;;;;;1.00;0.00;;;;;10.73;74.97;99886.63;5069396;27;58343;-77
2024/01/05 07:33:18;;;;;;;;;2.00;0.00;;;;;10.65;74.92;99872.78;5076402;27;54699;-77
2024/01/05 07:35:43;;;;;;;;;1.00;0.25;;;;;10.66;74.53;99890.53;5069972;27;45382;-75
2024/01/05 07:38:09;;;;;;;;;0.75;0.00;;;;;10.64;74.74;99887.06;5078359;28;53127;-75
2024/01/05 07:40:34;;;;;;;;;1.50;1.00;;;;;10.61;74.66;99879.22;5078497;28;45410;-74
2024/01/05 07:42:59;;;;;;;;;1.75;1.00;;;;;10.60;75.29;99884.63;5077395;28;46781;-74
2024/01/05 07:45:25;;;;;;;;;0.50;0.50;;;;;10.57;75.39;99886.50;5078139;28;60758;-75
2024/01/05 07:47:50;;;;;;;;;1.00;0.50;;;;;10.60;75.39;99887.28;5081032;27;45347;-75
2024/01/05 07:50:16;;;;;;;;;0.50;0.00;;;;;10.44;75.32;99871.09;5077545;28;45389;-75
2024/01/05 07:52:42;;;;;;;;;0.75;0.00;;;;;10.63;75.47;99905.84;5077746;27;46075;-74
2024/01/05 07:55:09;;;;;;;;;3.00;0.00;;;;;10.60;75.57;99912.16;5076106;28;45572;-74
2024/01/05 07:57:35;;;;;;;;;0.50;0.50;;;;;10.59;75.53;99902.41;5061777;28;45459;-74
2024/01/05 08:00:00;;;;;;;;;0.00;0.00;;;;;10.61;75.50;99910.34;5076862;28;45248;-76
2024/01/05 08:02:25;;;;;;;;;0.25;0.25;;;;;10.50;75.30;99898.38;5075540;27;46024;-68
2024/01/05 08:04:50;;;;;;;;;1.00;1.00;;;;;10.49;75.72;99901.09;5076646;28;45573;-68
2024/01/05 08:07:17;;;;;;;;;2.75;1.75;;;;;10.53;75.72;99913.38;5073634;28;45277;-68
2024/01/05 08:09:43;;;;;;;;;3.00;0.75;;;;;10.53;75.52;99914.25;5053274;28;45596;-70
2024/01/05 08:12:08;;;;;;;;;1.00;1.00;;;;;10.58;75.98;99922.03;5069821;28;46021;-68
2024/01/05 08:14:34;;;;;;;;;1.00;0.50;;;;;10.56;75.90;99922.13;5074700;28;45389;-67
2024/01/05 08:16:59;;;;;;;;;2.50;1.00;;;;;10.50;76.12;99911.69;5077218;28;45638;-67
2024/01/05 08:19:25;;;;;;;;;1.00;1.00;;;;;10.52;75.75;99909.84;5078784;28;45642;-66
2024/01/05 08:21:50;;;;;;;;;2.00;2.00;;;;;10.41;75.34;99905.91;5076408;28;48139;-68
2024/01/05 08:24:15;;;;;;;;;1.00;0.00;;;;;10.45;75.76;99915.53;5078023;28;52223;-68
2024/01/05 08:26:43;;;;;;;;;1.25;1.25;;;;;10.50;75.90;99918.84;5056712;28;61140;-72
2024/01/05 08:29:09;;;;;;;;;1.00;1.00;;;;;10.38;75.76;99904.28;5057541;28;45569;-68
2024/01/05 08:31:34;;;;;;;;;2.00;2.00;;;;;10.52;75.88;99930.31;5077603;27;46324;-66
2024/01/05 08:33:59;;;;;;;;;1.75;1.00;;;;;10.41;76.06;99911.25;5073084;28;45521;-66
2024/01/05 08:36:25;;;;;;;;;1.50;1.50;;;;;10.47;75.64;99910.97;5078028;28;47034;-69
2024/01/05 08:38:51;;;;;;;;;2.75;1.75;;;;;10.53;75.47;99916.91;5077097;28;45721;-66
2024/01/05 08:41:16;;;;;;;;;1.00;1.00;;;;;10.27;76.10;99883.34;5072316;28;45431;-66
2024/01/05 08:43:44;;;;;;;;;2.00;1.50;;;;;10.57;75.71;99931.88;5077696;27;45509;-66
2024/01/05 08:46:10;;;;;;;;;3.50;1.00;;;;;10.33;76.01;99893.78;5076116;28;45497;-66
2024/01/05 08:48:36;;;;;;;;;1.00;1.00;;;;;10.34;75.55;99895.53;5076632;28;46008;-66
2024/01/05 08:51:01;;;;;;;;;3.00;1.00;;;;;10.31;75.95;99892.97;5077389;28;47173;-66
2024/01/05 08:53:27;;;;;;;;;2.75;1.50;;;;;10.41;75.94;99912.13;5075919;28;45834;-66
2024/01/05 08:55:52;;;;;;;;;2.00;2.00;;;;;10.55;75.82;99948.88;5075929;27;45511;-66
2024/01/05 08:58:18;;;;;;;;;1.00;1.00;;;;;10.35;76.07;99915.94;5077313;27;45330;-66
2024/01/05 09:00:43;;;;;;;;;1.75;1.25;;;;;10.53;76.33;99954.28;5075839;27;45640;-65
2024/01/05 09:03:08;;;;;;;;;1.00;1.00;;;;;10.56;76.30;99958.63;5082325;27;45356;-66
2024/01/05 09:05:34;;;;;;;;;1.75;1.75;;;;;10.37;76.22;99927.41;5079265;28;45399;-65
2024/01/05 09:07:59;;;;;;;;;2.00;2.00;;;;;10.43;76.01;99933.41;5078364;28;50285;-64
2024/01/05 09:10:25;;;;;;;;;2.50;2.00;;;;;10.43;76.23;99947.63;5077277;27;45394;-64
2024/01/05 09:12:51;;;;;;;;;5.00;2.00;;;;;10.32;76.01;99921.44;5059562;28;45394;-66
2024/01/05 09:15:17;;;;;;;;;1.75;1.75;;;;;10.51;76.41;99952.63;5078437;28;45343;-65
2024/01/05 09:17:43;;;;;;;;;3.25;2.25;;;;;10.24;76.13;99912.88;5078493;28;45533;-65
2024/01/05 09:20:08;;;;;;;;;0.25;0.25;;;;;10.22;76.20;99919.19;5078778;28;46114;-66
2024/01/05 09:22:34;;;;;;;;;1.75;1.00;;;;;10.38;76.16;99949.63;5078067;28;45468;-66
2024/01/05 09:24:59;;;;;;;;;2.00;1.00;;;;;10.20;76.13;99909.44;5075555;28;45406;-66
2024/01/05 09:27:25;;;;;;;;;0.25;0.25;;;;;10.26;76.19;99931.47;5078932;27;45652;-66
2024/01/05 09:29:50;;;;;;;;;2.50;1.50;;;;;10.29;75.86;99940.19;5077728;27;45464;-65
2024/01/05 09:32:16;;;;;;;;;2.00;2.00;;;;;10.46;76.40;99975.97;5059092;28;45546;-66
2024/01/05 09:34:44;;;;;;;;;2.25;2.00;;;;;10.37;76.36;99955.88;5078356;28;45908;-66
2024/01/05 09:37:10;;;;;;;;;1.00;0.00;;;;;10.41;76.22;99965.50;5077486;28;45579;-66
2024/01/05 09:39:35;;;;;;;;;0.25;0.25;;;;;10.60;76.09;99994.88;5059996;28;47584;-66
2024/01/05 09:42:01;;;;;;;;;2.25;2.00;;;;;10.54;76.26;99985.38;5058561;28;45694;-66
2024/01/05 09:44:27;;;;;;;;;1.00;1.00;;;;;10.42;76.32;99977.88;5077150;28;45712;-66
2024/01/05 09:46:53;;;;;;;;;1.00;1.00;;;;;10.20;76.46;99935.25;5058225;28;45731;-66
2024/01/05 09:49:20;;;;;;;;;2.50;1.75;;;;;10.29;76.32;99949.97;5076869;28;45560;-66
2024/01/05 09:51:46;;;;;;;;;2.00;2.00;;;;;10.46;76.12;99982.16;5056780;28;45463;-66
2024/01/05 09:54:12;;;;;;;;;0.50;0.50;;;;;10.38;76.11;99966.47;5076854;27;45489;-66
2024/01/05 09:56:39;;;;;;;;;1.75;1.75;;;;;10.42;76.68;99969.88;5077594;28;45498;-66
2024/01/05 09:59:05;;;;;;;;;1.00;1.00;;;;;10.41;76.33;99978.84;5072533;28;45779;-66
2024/01/05 10:01:31;;;;;;;;;2.25;2.00;;;;;10.59;76.44;99997.63;5078179;27;45821;-66
2024/01/05 10:04:04;;;;;;;;;1.75;1.00;;;;;10.65;76.17;100014.22;5076730;28;45475;-66
2024/01/05 10:06:30;;;;;;;;;3.50;0.25;;;;;10.39;76.40;99970.03;5052216;28;46543;-66
2024/01/05 10:08:57;;;;;;;;;1.00;1.00;;;;;10.65;76.61;100016.03;5059799;28;47258;-66
2024/01/05 10:11:41;;;;;;;;;3.50;1.75;;;;;10.36;76.42;99960.34;5076453;28;45449;-66
2024/01/05 10:14:09;;;;;;;;;1.50;1.50;;;;;10.67;76.46;100011.50;5076423;28;45435;-66
2024/01/05 10:16:39;;;;;;;;;2.75;2.00;;;;;10.55;76.31;99991.56;5077580;28;45582;-66
2024/01/05 10:19:15;;;;;;;;;1.00;1.00;;;;;10.59;76.29;100003.81;5058149;28;47281;-66
2024/01/05 10:21:42;;;;;;;;;1.50;0.25;;;;;10.75;76.15;100020.03;5055244;28;45418;-66
2024/01/05 10:24:14;;;;;;;;;5.50;2.00;;;;;10.73;75.85;100013.91;5069551;28;45694;-66
2024/01/05 10:26:40;;;;;;;;;2.00;2.00;;;;;10.64;76.01;99991.16;5056297;28;45631;-66
2024/01/05 10:29:13;;;;;;;;;2.00;2.00;;;;;10.78;75.68;100011.03;5078256;27;46019;-66
2024/01/05 10:31:41;;;;;;;;;1.25;1.25;;;;;10.79;76.26;100012.75;5079230;27;45690;-67
2024/01/05 10:34:07;;;;;;;;;1.00;1.00;;;;;10.82;75.94;100004.59;5059342;28;45407;-66
2024/01/05 10:36:33;;;;;;;;;0.25;0.25;;;;;10.84;75.84;100000.06;5077093;28;45658;-66
2024/01/05 10:38:58;;;;;;;;;1.00;1.00;;;;;10.67;75.60;99966.13;5076523;28;45679;-66
2024/01/05 10:41:24;;;;;;;;;1.00;1.00;;;;;10.75;75.92;99980.00;5057875;28;45512;-66
2024/01/05 10:43:50;;;;;;;;;1.00;1.00;;;;;10.92;75.57;100001.44;5074051;28;45348;-66
2024/01/05 10:46:18;;;;;;;;;3.25;1.75;;;;;10.68;75.27;99966.06;5059182;28;45628;-65
2024/01/05 10:48:44;;;;;;;;;1.75;0.25;;;;;10.85;75.41;99978.63;5077510;28;45920;-66
2024/01/05 10:51:19;;;;;;;;;1.00;1.00;;;;;10.81;75.41;99968.16;5055284;28;45378;-66
2024/01/05 10:53:46;;;;;;;;;0.00;0.00;;;;;11.03;75.71;99998.28;5054247;28;45412;-66
2024/01/05 10:56:12;;;;;;;;;1.25;1.00;;;;;11.05;75.13;100001.75;5054692;28;46046;-66
2024/01/05 10:58:38;;;;;;;;;1.00;1.00;;;;;11.05;74.82;99988.41;5056843;28;48707;-67
2024/01/05 11:01:06;;;;;;;;;1.00;1.00;;;;;10.94;75.14;99961.31;5085425;27;45654;-67
2024/01/05 11:03:39;;;;;;;;;1.25;1.00;;;;;11.16;75.20;99992.38;5077669;28;45483;-67
2024/01/05 11:06:08;;;;;;;;;1.00;1.00;;;;;11.00;74.92;99962.84;5077245;28;45363;-66
2024/01/05 11:08:52;;;;;;;;;1.00;1.00;;;;;11.21;75.00;99991.22;5043776;28;47237;-66
2024/01/05 11:11:50;;;;;;;;;2.00;1.00;;;;;11.18;74.95;99996.72;5076849;28;45585;-66
2024/01/05 11:14:53;;;;;;;;;2.00;1.25;;;;;10.98;74.80;99946.03;5073336;28;45459;-66
2024/01/05 11:17:40;;;;;;;;;2.00;1.75;;;;;11.21;74.62;99985.00;5066950;28;45379;-65
2024/01/05 11:20:22;;;;;;;;;1.75;1.00;;;;;11.32;74.64;100009.41;5077631;28;45443;-66
2024/01/05 11:22:50;;;;;;;;;3.25;1.00;;;;;11.31;74.09;99989.84;5075528;28;46090;-66
2024/01/05 11:25:21;;;;;;;;;1.00;1.00;;;;;11.34;74.07;99991.50;5077299;28;45417;-66
2024/01/05 11:49:38;;;;;;;;;;;;;;;;;;;;;
2024/01/05 11:59:41;;;;;;;;;;;;;;;;;;;;;
2024/01/05 12:02:32;;;;;;;;;1.50;1.00;;;;;11.70;72.36;99979.97;4989709;28;72816;-66